createdAt,value
2022-09-21T00:01:31.879Z,61.40
2022-09-21T00:04:01.509Z,61.40
2022-09-21T00:06:29.877Z,61.40
2022-09-21T00:08:57.288Z,61.40
2022-09-21T00:11:27.381Z,61.30
2022-09-21T00:13:58.021Z,61.30
2022-09-21T00:16:25.468Z,61.30
2022-09-21T00:18:52.153Z,61.30
2022-09-21T00:21:19.217Z,61.40
2022-09-21T00:23:46.590Z,61.40
2022-09-21T00:26:16.290Z,61.30
2022-09-21T00:28:44.500Z,61.30
2022-09-21T00:31:14.211Z,61.30
2022-09-21T00:33:43.411Z,61.30
2022-09-21T00:36:13.040Z,61.30
2022-09-21T00:38:40.383Z,61.30
2022-09-21T00:41:09.990Z,61.30
2022-09-21T00:43:39.848Z,61.30
2022-09-21T00:46:28.828Z,61.20
2022-09-21T00:48:57.288Z,61.30
2022-09-21T00:51:25.056Z,61.30
2022-09-21T00:53:58.040Z,61.20
2022-09-21T00:56:24.946Z,61.30
2022-09-21T00:58:54.348Z,61.30
2022-09-21T01:01:22.073Z,61.30
2022-09-21T01:03:51.383Z,62.00
2022-09-21T01:06:20.305Z,61.20
2022-09-21T01:08:53.239Z,61.30
2022-09-21T01:11:34.486Z,61.20
2022-09-21T01:14:22.673Z,61.20
2022-09-21T01:17:02.405Z,61.20
2022-09-21T01:19:34.697Z,61.20
2022-09-21T01:22:08.790Z,61.20
2022-09-21T01:24:50.421Z,61.20
2022-09-21T01:27:35.988Z,61.20
2022-09-21T01:30:12.846Z,61.30
2022-09-21T01:32:55.005Z,61.20
2022-09-21T01:35:28.762Z,61.20
2022-09-21T01:38:03.537Z,61.20
2022-09-21T01:40:38.268Z,61.10
2022-09-21T01:43:06.763Z,61.20
2022-09-21T01:45:40.955Z,61.20
2022-09-21T01:48:08.663Z,61.20
2022-09-21T01:50:44.708Z,61.20
2022-09-21T01:53:23.703Z,61.20
2022-09-21T01:55:55.048Z,61.20
2022-09-21T01:59:00.462Z,61.20
2022-09-21T02:01:30.470Z,61.10
2022-09-21T02:04:04.067Z,60.50
2022-09-21T02:06:31.671Z,61.10
2022-09-21T02:08:58.312Z,61.10
2022-09-21T02:11:25.229Z,61.10
2022-09-21T02:13:55.020Z,61.20
2022-09-21T02:16:36.989Z,61.10
2022-09-21T02:19:14.613Z,61.10
2022-09-21T02:22:04.048Z,61.10
2022-09-21T02:24:47.910Z,61.10
2022-09-21T02:27:29.706Z,61.10
2022-09-21T02:30:01.681Z,61.10
2022-09-21T02:32:53.836Z,61.10
2022-09-21T02:35:42.972Z,61.10
2022-09-21T02:38:18.596Z,61.10
2022-09-21T02:40:53.994Z,61.10
2022-09-21T02:43:32.288Z,61.10
2022-09-21T02:46:19.361Z,61.10
2022-09-21T02:48:53.962Z,61.10
2022-09-21T02:51:32.101Z,61.10
2022-09-21T02:54:02.177Z,61.00
2022-09-21T02:56:31.278Z,61.00
2022-09-21T02:59:01.404Z,61.00
2022-09-21T03:01:29.442Z,61.10
2022-09-21T03:03:56.045Z,61.00
2022-09-21T03:06:22.774Z,61.00
2022-09-21T03:08:49.583Z,61.10
2022-09-21T03:11:17.999Z,60.90
2022-09-21T03:13:44.985Z,61.00
2022-09-21T03:16:12.597Z,60.90
2022-09-21T03:18:40.211Z,60.90
2022-09-21T03:21:06.925Z,61.10
2022-09-21T03:23:33.501Z,60.80
2022-09-21T03:26:00.096Z,60.90
2022-09-21T03:28:26.752Z,60.90
2022-09-21T03:30:53.507Z,60.90
2022-09-21T03:33:20.685Z,60.90
2022-09-21T03:35:51.145Z,60.80
2022-09-21T03:38:18.597Z,60.80
2022-09-21T03:40:46.395Z,60.80
2022-09-21T03:43:13.517Z,60.90
2022-09-21T03:45:41.893Z,60.90
2022-09-21T03:48:10.524Z,60.80
2022-09-21T03:50:37.850Z,60.80
2022-09-21T03:53:05.303Z,60.90
2022-09-21T03:55:33.044Z,60.80
2022-09-21T03:58:00.519Z,60.80
2022-09-21T04:00:27.790Z,61.00
2022-09-21T04:02:55.052Z,60.10
2022-09-21T04:05:21.841Z,60.80
2022-09-21T04:07:48.922Z,60.80
2022-09-21T04:10:19.584Z,60.80
2022-09-21T04:12:46.688Z,60.80
2022-09-21T04:15:16.147Z,60.80
2022-09-21T04:17:42.723Z,60.80
2022-09-21T04:20:09.729Z,60.80
2022-09-21T04:22:41.118Z,60.80
2022-09-21T04:25:10.477Z,60.80
2022-09-21T04:27:37.123Z,60.80
2022-09-21T04:30:04.653Z,60.80
2022-09-21T04:32:31.293Z,60.80
2022-09-21T04:34:58.154Z,60.80
2022-09-21T04:37:24.810Z,60.90
2022-09-21T04:39:51.683Z,60.80
2022-09-21T04:42:18.576Z,60.70
2022-09-21T04:44:45.152Z,60.80
2022-09-21T04:47:11.805Z,60.90
2022-09-21T04:49:38.523Z,60.80
2022-09-21T04:52:05.862Z,59.30
2022-09-21T04:54:32.477Z,59.90
2022-09-21T04:56:59.218Z,59.80
2022-09-21T04:59:25.935Z,59.10
2022-09-21T05:01:52.687Z,59.70
2022-09-21T05:04:19.345Z,60.00
2022-09-21T05:06:45.925Z,60.10
2022-09-21T05:09:31.264Z,60.00
2022-09-21T05:11:57.847Z,60.00
2022-09-21T05:14:24.440Z,60.00
2022-09-21T05:16:51.042Z,59.80
2022-09-21T05:19:18.030Z,59.80
2022-09-21T05:21:44.610Z,59.80
2022-09-21T05:24:11.206Z,59.80
2022-09-21T05:26:38.231Z,59.80
2022-09-21T05:29:05.288Z,59.90
2022-09-21T05:31:53.616Z,60.70
2022-09-21T05:34:41.560Z,60.10
2022-09-21T05:37:50.558Z,60.20
2022-09-21T05:40:17.677Z,60.20
2022-09-21T05:42:44.840Z,60.10
2022-09-21T05:45:16.462Z,60.20
2022-09-21T05:47:55.653Z,60.20
2022-09-21T05:50:25.245Z,60.30
2022-09-21T05:53:03.713Z,59.70
2022-09-21T05:55:51.930Z,60.30
2022-09-21T05:58:42.106Z,60.20
2022-09-21T06:01:14.219Z,60.20
2022-09-21T06:03:42.197Z,60.30
2022-09-21T06:06:09.668Z,60.20
2022-09-21T06:08:36.278Z,60.20
2022-09-21T06:11:02.882Z,60.30
2022-09-21T06:13:29.475Z,60.20
2022-09-21T06:15:56.214Z,60.40
2022-09-21T06:18:22.832Z,60.30
2022-09-21T06:20:49.385Z,60.20
2022-09-21T06:23:16.036Z,59.80
2022-09-21T06:25:42.666Z,60.30
2022-09-21T06:28:12.079Z,60.40
2022-09-21T06:30:41.946Z,60.30
2022-09-21T06:33:08.908Z,60.30
2022-09-21T06:35:36.559Z,61.00
2022-09-21T06:38:05.831Z,60.30
2022-09-21T06:40:36.767Z,60.30
2022-09-21T06:43:04.633Z,60.30
2022-09-21T06:45:31.377Z,60.30
2022-09-21T06:47:58.222Z,60.30
2022-09-21T06:50:25.073Z,60.30
2022-09-21T06:52:51.660Z,60.30
2022-09-21T06:55:18.363Z,60.30
2022-09-21T06:57:44.971Z,60.30
2022-09-21T07:00:12.822Z,60.30
2022-09-21T07:02:44.526Z,60.30
2022-09-21T07:05:11.973Z,60.30
2022-09-21T07:07:40.124Z,60.30
2022-09-21T07:10:13.075Z,60.30
2022-09-21T07:12:41.232Z,60.30
2022-09-21T07:15:10.149Z,60.30
2022-09-21T07:17:39.451Z,60.30
2022-09-21T07:20:07.941Z,60.40
2022-09-21T07:22:35.050Z,60.30
2022-09-21T07:25:01.993Z,60.30
2022-09-21T07:27:30.805Z,60.30
2022-09-21T07:29:57.646Z,60.30
2022-09-21T07:32:25.661Z,60.30
2022-09-21T07:34:56.290Z,60.30
2022-09-21T07:37:24.551Z,60.30
2022-09-21T07:39:52.936Z,60.30
2022-09-21T07:42:22.505Z,60.30
2022-09-21T07:44:50.951Z,60.30
2022-09-21T07:47:18.072Z,60.30
2022-09-21T07:49:45.683Z,60.30
2022-09-21T07:52:12.331Z,59.70
2022-09-21T07:54:38.921Z,60.30
2022-09-21T07:57:23.878Z,60.20
2022-09-21T07:59:50.476Z,60.30
2022-09-21T08:02:17.148Z,60.30
2022-09-21T08:04:43.765Z,60.30
2022-09-21T08:07:10.355Z,60.20
2022-09-21T08:09:37.010Z,60.20
2022-09-21T08:12:03.678Z,59.70
2022-09-21T08:14:30.323Z,60.30
2022-09-21T08:16:56.985Z,60.20
2022-09-21T08:19:25.662Z,60.20
2022-09-21T08:21:57.199Z,60.20
2022-09-21T08:24:26.436Z,60.20
2022-09-21T08:26:53.110Z,60.20
2022-09-21T08:29:19.774Z,60.30
2022-09-21T08:31:46.730Z,60.20
2022-09-21T08:34:14.067Z,60.20
2022-09-21T08:36:40.875Z,60.20
2022-09-21T08:39:08.336Z,60.20
2022-09-21T08:41:58.988Z,60.20
2022-09-21T08:44:32.318Z,60.20
2022-09-21T08:47:09.726Z,60.20
2022-09-21T08:49:38.241Z,60.20
2022-09-21T08:52:15.604Z,59.70
2022-09-21T08:55:01.300Z,60.40
2022-09-21T08:57:32.681Z,60.10
2022-09-21T09:00:00.711Z,60.10
2022-09-21T09:02:43.805Z,59.60
2022-09-21T09:05:42.533Z,60.20
2022-09-21T09:08:46.313Z,60.20
2022-09-21T09:11:34.447Z,60.20
2022-09-21T09:14:14.686Z,60.20
2022-09-21T09:16:59.790Z,60.20
2022-09-21T09:19:47.609Z,60.30
2022-09-21T09:22:21.747Z,60.10
2022-09-21T09:24:51.168Z,60.20
2022-09-21T09:27:17.738Z,60.20
2022-09-21T09:30:04.633Z,60.20
2022-09-21T09:33:12.729Z,60.10
2022-09-21T09:36:11.102Z,60.20
2022-09-21T09:38:42.126Z,60.20
2022-09-21T09:41:47.374Z,60.20
2022-09-21T09:44:45.305Z,59.70
2022-09-21T09:47:48.913Z,60.20
2022-09-21T09:50:33.585Z,60.20
2022-09-21T09:53:11.982Z,60.10
2022-09-21T09:55:50.392Z,60.10
2022-09-21T09:58:37.045Z,60.10
2022-09-21T10:01:04.249Z,60.10
2022-09-21T10:03:30.908Z,60.10
2022-09-21T10:05:57.664Z,60.10
2022-09-21T10:08:41.890Z,60.20
2022-09-21T10:11:09.423Z,60.10
2022-09-21T10:13:37.646Z,60.10
2022-09-21T10:16:12.592Z,60.20
2022-09-21T10:18:59.450Z,60.20
2022-09-21T10:21:34.362Z,60.20
2022-09-21T10:24:05.582Z,60.10
2022-09-21T10:26:40.384Z,60.10
2022-09-21T10:29:22.086Z,60.20
2022-09-21T10:31:58.330Z,60.20
2022-09-21T10:34:27.711Z,60.10
2022-09-21T10:36:56.065Z,60.20
2022-09-21T10:39:30.276Z,60.10
2022-09-21T10:42:03.933Z,60.20
2022-09-21T10:44:48.686Z,60.20
2022-09-21T10:47:38.864Z,60.20
2022-09-21T10:50:22.076Z,60.20
2022-09-21T10:52:49.839Z,59.70
2022-09-21T10:55:19.591Z,60.20
2022-09-21T10:57:47.719Z,60.20
2022-09-21T11:00:29.211Z,60.30
2022-09-21T11:02:59.075Z,60.40
2022-09-21T11:05:31.352Z,60.20
2022-09-21T11:08:19.056Z,60.30
2022-09-21T11:10:56.802Z,60.30
2022-09-21T11:13:26.141Z,60.30
2022-09-21T11:16:01.101Z,60.40
2022-09-21T11:18:55.242Z,60.30
2022-09-21T11:21:40.285Z,61.10
2022-09-21T11:24:12.706Z,60.40
2022-09-21T11:27:06.624Z,60.40
2022-09-21T11:29:56.605Z,60.40
2022-09-21T11:32:34.829Z,60.40
2022-09-21T11:35:11.211Z,60.40
2022-09-21T11:37:50.426Z,60.30
2022-09-21T11:40:35.888Z,60.30
2022-09-21T11:43:29.049Z,59.80
2022-09-21T11:46:33.112Z,60.30
2022-09-21T11:49:27.733Z,60.40
2022-09-21T11:52:09.106Z,60.40
2022-09-21T11:55:04.431Z,60.40
2022-09-21T11:57:36.865Z,60.40
2022-09-21T12:00:44.112Z,60.40
2022-09-21T12:03:28.625Z,59.90
2022-09-21T12:06:03.544Z,60.40
2022-09-21T12:08:54.167Z,60.40
2022-09-21T12:11:21.080Z,60.40
2022-09-21T12:14:10.937Z,60.40
2022-09-21T12:17:08.249Z,60.40
2022-09-21T12:20:02.880Z,60.30
2022-09-21T12:22:34.212Z,60.30
2022-09-21T12:25:12.549Z,60.40
2022-09-21T12:28:07.592Z,60.40
2022-09-21T12:30:35.129Z,60.50
2022-09-21T12:33:21.678Z,60.50
2022-09-21T12:35:54.928Z,60.50
2022-09-21T12:41:10.762Z,60.60
2022-09-21T12:43:44.379Z,60.60
2022-09-21T12:46:28.606Z,60.50
2022-09-21T12:48:56.307Z,60.50
2022-09-21T12:51:42.956Z,60.40
2022-09-21T12:54:26.504Z,59.90
2022-09-21T12:57:17.692Z,60.50
2022-09-21T13:00:00.764Z,61.10
2022-09-21T13:02:46.608Z,60.50
2022-09-21T13:05:28.137Z,60.50
2022-09-21T13:08:06.318Z,60.40
2022-09-21T13:10:43.642Z,60.60
2022-09-21T13:13:37.583Z,60.60
2022-09-21T13:16:07.265Z,60.50
2022-09-21T13:18:37.527Z,60.60
2022-09-21T13:21:26.467Z,60.60
2022-09-21T13:24:01.253Z,60.60
2022-09-21T13:26:35.970Z,60.60
2022-09-21T13:29:27.973Z,60.60
2022-09-21T13:32:00.254Z,60.60
2022-09-21T13:34:35.719Z,60.60
2022-09-21T13:37:11.589Z,60.60
2022-09-21T13:39:57.317Z,60.60
2022-09-21T13:42:35.078Z,60.60
2022-09-21T13:45:13.677Z,60.00
2022-09-21T13:47:42.236Z,60.60
2022-09-21T13:50:24.163Z,60.70
2022-09-21T13:52:58.519Z,60.60
2022-09-21T13:55:30.625Z,60.50
2022-09-21T13:58:02.005Z,60.60
2022-09-21T14:00:35.878Z,60.60
2022-09-21T14:03:23.499Z,60.70
2022-09-21T14:05:54.376Z,60.70
2022-09-21T14:08:37.415Z,60.80
2022-09-21T14:11:08.533Z,60.90
2022-09-21T14:13:41.310Z,60.90
2022-09-21T14:16:28.770Z,60.90
2022-09-21T14:18:56.293Z,60.90
2022-09-21T14:21:23.172Z,60.90
2022-09-21T14:24:19.668Z,61.00
2022-09-21T14:26:55.641Z,61.00
2022-09-21T14:29:39.495Z,61.10
2022-09-21T14:32:16.373Z,61.10
2022-09-21T14:34:46.870Z,61.10
2022-09-21T14:37:33.422Z,61.00
2022-09-21T14:40:25.365Z,61.00
2022-09-21T14:42:56.412Z,61.00
2022-09-21T14:46:01.673Z,61.00
2022-09-21T14:48:34.397Z,60.90
2022-09-21T14:51:38.053Z,61.70
2022-09-21T14:54:19.586Z,60.80
2022-09-21T14:57:12.769Z,60.80
2022-09-21T15:00:21.191Z,60.80
2022-09-21T15:03:22.151Z,60.70
2022-09-21T15:06:34.268Z,60.80
2022-09-21T15:09:45.617Z,60.80
2022-09-21T15:12:22.628Z,60.70
2022-09-21T15:15:20.083Z,60.70
2022-09-21T15:17:59.334Z,60.70
2022-09-21T15:20:29.367Z,60.70
2022-09-21T15:23:00.162Z,60.70
2022-09-21T15:25:31.641Z,60.70
2022-09-21T15:27:59.909Z,60.70
2022-09-21T15:30:29.262Z,60.70
2022-09-21T15:32:59.409Z,60.70
2022-09-21T15:35:28.261Z,60.70
2022-09-21T15:37:56.584Z,60.80
2022-09-21T15:40:35.223Z,60.70
2022-09-21T15:43:14.977Z,60.80
2022-09-21T15:46:11.369Z,60.70
2022-09-21T15:48:41.072Z,60.80
2022-09-21T15:54:26.565Z,60.30
2022-09-21T15:56:55.037Z,61.10
2022-09-21T15:59:22.529Z,61.30
2022-09-21T16:01:53.263Z,61.30
2022-09-21T16:04:22.478Z,61.50
2022-09-21T16:07:04.409Z,61.50
2022-09-21T16:09:44.975Z,61.80
2022-09-21T16:12:39.118Z,62.20
2022-09-21T16:15:25.908Z,61.40
2022-09-21T16:18:06.114Z,61.30
2022-09-21T16:20:42.580Z,61.50
2022-09-21T16:23:23.083Z,61.40
2022-09-21T16:26:01.364Z,61.50
2022-09-21T16:28:30.224Z,61.50
2022-09-21T16:30:58.710Z,61.50
2022-09-21T16:33:56.829Z,61.50
2022-09-21T16:36:27.326Z,61.60
2022-09-21T16:38:54.212Z,61.70
2022-09-21T16:41:22.251Z,61.60
2022-09-21T16:43:50.900Z,61.60
2022-09-21T16:46:18.530Z,61.60
2022-09-21T16:48:45.236Z,61.50
2022-09-21T16:51:13.084Z,61.50
2022-09-21T16:53:39.817Z,61.70
2022-09-21T16:56:14.187Z,61.70
2022-09-21T16:58:45.184Z,61.70
2022-09-21T17:01:13.386Z,61.70
2022-09-21T17:03:40.250Z,61.70
2022-09-21T17:06:25.033Z,61.80
2022-09-21T17:08:51.636Z,61.80
2022-09-21T17:11:20.008Z,61.80
2022-09-21T17:13:50.336Z,61.80
2022-09-21T17:16:19.293Z,61.80
2022-09-21T17:18:47.010Z,61.90
2022-09-21T17:21:14.393Z,61.90
2022-09-21T17:23:41.954Z,61.90
2022-09-21T17:26:17.583Z,62.00
2022-09-21T17:28:44.530Z,62.10
2022-09-21T17:31:18.957Z,62.00
2022-09-21T17:33:47.686Z,62.00
2022-09-21T17:36:16.020Z,62.00
2022-09-21T17:38:43.385Z,62.10
2022-09-21T17:41:17.983Z,62.00
2022-09-21T17:43:56.298Z,62.00
2022-09-21T17:46:29.049Z,62.00
2022-09-21T17:48:55.939Z,62.10
2022-09-21T17:51:41.165Z,62.00
2022-09-21T17:54:08.141Z,61.40
2022-09-21T17:56:47.317Z,62.00
2022-09-21T17:59:26.829Z,62.00
2022-09-21T18:01:54.246Z,62.00
2022-09-21T18:04:21.118Z,62.00
2022-09-21T18:06:48.035Z,62.10
2022-09-21T18:09:14.800Z,62.00
2022-09-21T18:12:08.701Z,62.00
2022-09-21T18:15:08.446Z,62.00
2022-09-21T18:17:51.148Z,61.90
2022-09-21T18:20:51.424Z,62.00
2022-09-21T18:23:40.226Z,62.00
2022-09-21T18:26:15.266Z,62.10
2022-09-21T18:28:45.669Z,62.10
2022-09-21T18:31:21.251Z,62.00
2022-09-21T18:34:00.978Z,62.10
2022-09-21T18:36:51.465Z,62.10
2022-09-21T18:39:35.012Z,62.10
2022-09-21T18:42:22.048Z,62.20
2022-09-21T18:45:09.580Z,62.10
2022-09-21T18:47:48.886Z,62.10
2022-09-21T18:50:23.211Z,61.90
2022-09-21T18:53:21.470Z,61.90
2022-09-21T18:55:48.950Z,61.90
2022-09-21T18:58:16.054Z,61.80
2022-09-21T19:00:43.074Z,61.60
2022-09-21T19:03:18.131Z,61.10
2022-09-21T19:06:13.681Z,61.80
2022-09-21T19:08:54.604Z,61.80
2022-09-21T19:11:32.348Z,61.60
2022-09-21T19:14:14.269Z,61.50
2022-09-21T19:16:55.690Z,61.40
2022-09-21T19:19:49.661Z,60.70
2022-09-21T19:22:39.520Z,60.70
2022-09-21T19:25:44.719Z,61.30
2022-09-21T19:28:42.912Z,61.20
2022-09-21T19:31:21.056Z,61.20
2022-09-21T19:33:50.772Z,60.50
2022-09-21T19:36:19.217Z,61.10
2022-09-21T19:38:46.022Z,61.20
2022-09-21T19:41:23.147Z,61.20
2022-09-21T19:44:05.037Z,61.20
2022-09-21T19:46:33.368Z,61.20
2022-09-21T19:49:19.234Z,61.20
2022-09-21T19:51:50.188Z,60.60
2022-09-21T19:54:39.797Z,61.20
2022-09-21T19:57:39.481Z,60.70
2022-09-21T20:00:13.014Z,61.30
2022-09-21T20:02:44.758Z,61.30
2022-09-21T20:05:23.276Z,61.30
2022-09-21T20:08:04.745Z,61.30
2022-09-21T20:10:42.011Z,61.30
2022-09-21T20:13:21.889Z,61.30
2022-09-21T20:15:59.879Z,61.40
2022-09-21T20:19:07.556Z,61.40
2022-09-21T20:21:39.781Z,61.30
2022-09-21T20:24:21.649Z,61.20
2022-09-21T20:26:50.867Z,61.40
2022-09-21T20:29:19.408Z,61.50
2022-09-21T20:31:47.888Z,61.40
2022-09-21T20:34:15.417Z,61.40
2022-09-21T20:36:42.021Z,61.40
2022-09-21T20:39:08.678Z,61.40
2022-09-21T20:41:35.583Z,61.40
2022-09-21T20:44:02.401Z,61.50
2022-09-21T20:46:30.026Z,61.40
2022-09-21T20:49:04.514Z,61.40
2022-09-21T20:51:34.634Z,61.40
2022-09-21T20:54:02.320Z,61.60
2022-09-21T20:56:30.171Z,61.50
2022-09-21T20:58:56.895Z,61.50
2022-09-21T21:01:24.034Z,61.50
2022-09-21T21:03:51.079Z,61.50
2022-09-21T21:06:18.622Z,61.50
2022-09-21T21:08:46.097Z,61.50
2022-09-21T21:11:14.272Z,61.50
2022-09-21T21:13:41.614Z,61.60
2022-09-21T21:16:12.123Z,61.50
2022-09-21T21:18:41.934Z,61.50
2022-09-21T21:21:08.579Z,61.50
2022-09-21T21:23:53.766Z,61.50
2022-09-21T21:26:20.606Z,61.50
2022-09-21T21:28:47.310Z,61.50
2022-09-21T21:31:18.224Z,61.50
2022-09-21T21:33:47.908Z,61.50
2022-09-21T21:36:14.906Z,61.50
2022-09-21T21:38:43.101Z,61.60
2022-09-21T21:41:12.730Z,61.60
2022-09-21T21:43:40.224Z,61.60
2022-09-21T21:46:08.511Z,61.60
2022-09-21T21:48:40.689Z,61.60
2022-09-21T21:51:08.040Z,61.60
2022-09-21T21:53:37.766Z,60.80
2022-09-21T21:56:06.311Z,61.60
2022-09-21T21:58:33.862Z,61.60
2022-09-21T22:01:27.970Z,61.60
2022-09-21T22:03:59.790Z,61.60
2022-09-21T22:06:27.841Z,61.60
2022-09-21T22:08:55.290Z,61.60
2022-09-21T22:11:23.705Z,61.60
2022-09-21T22:13:51.093Z,61.50
2022-09-21T22:16:19.909Z,61.50
2022-09-21T22:18:46.569Z,61.50
2022-09-21T22:21:15.811Z,61.50
2022-09-21T22:23:42.958Z,60.80
2022-09-21T22:26:12.861Z,61.40
2022-09-21T22:28:40.857Z,61.50
2022-09-21T22:31:13.737Z,61.50
2022-09-21T22:33:40.693Z,61.50
2022-09-21T22:36:12.908Z,61.40
2022-09-21T22:38:42.961Z,61.50
2022-09-21T22:41:16.991Z,61.40
2022-09-21T22:43:44.845Z,61.40
2022-09-21T22:46:12.005Z,61.40
2022-09-21T22:48:39.281Z,61.40
2022-09-21T22:51:05.922Z,61.50
2022-09-21T22:53:32.548Z,61.40
2022-09-21T22:56:02.319Z,61.50
2022-09-21T22:58:29.464Z,61.40
2022-09-21T23:01:25.255Z,61.40
2022-09-21T23:03:55.234Z,61.40
2022-09-21T23:06:23.877Z,61.40
2022-09-21T23:08:51.711Z,61.40
2022-09-21T23:11:21.988Z,61.40
2022-09-21T23:13:49.509Z,61.40
2022-09-21T23:16:16.818Z,61.40
2022-09-21T23:18:44.020Z,61.40
2022-09-21T23:21:15.421Z,61.40
2022-09-21T23:23:43.166Z,61.40
2022-09-21T23:26:18.299Z,61.40
2022-09-21T23:28:50.731Z,61.40
2022-09-21T23:31:17.392Z,61.40
2022-09-21T23:33:46.754Z,61.40
2022-09-21T23:36:16.372Z,61.40
2022-09-21T23:38:44.095Z,61.20
2022-09-21T23:41:16.658Z,61.30
2022-09-21T23:43:46.559Z,61.40
2022-09-21T23:46:16.795Z,61.30
2022-09-21T23:48:44.248Z,61.30
2022-09-21T23:51:11.352Z,61.30
2022-09-21T23:53:38.124Z,61.40
2022-09-21T23:56:05.993Z,61.30
2022-09-21T23:58:33.396Z,61.30
